Carmona, Texas
Current Conditions -  °F | °C
As of 9:53 AM on Friday 24 Oct 2014 (Local Time) from KLFK Reporting Station
Clear Clear  
Wind Chill: 18°   Ceiling: Unl
Heat Index: 18°   Visibility: 10mi
Dew Point: 11°   Wind: 3mph
Humidity: 65%   Direction: NA
Pressure: 30.19"   Gusts: NA
Location:  31.024°N, 94.7686°W
Report Text: KLFK 241453Z AUTO VRB03KT 10SM CLR 18/11 A3019 RMK AO2 SLP219 T01780111 51011
Loading
Personal Weather Stations






























Interactive Weather Map
Tropical Storm Tracking
New forecast layout! Learn more

10-Day Weather Forecast

Advertisements
Track Severe Weather on mobile